Terminal Aerodrome Forecast
Issued by NWS

Home | Current Version | Previous Version | Text Only | Print | Product List | Glossary On
Versions: 1 2 3 4 5 6 7 8 9 10 11 12 13 14
000
FTUS45 KABQ 251125
TAFROW
TAF
KROW 251125Z 2512/2612 34006KT P6SM SCT120 BKN200
     FM251900 25010KT P6SM SCT150
     FM260200 28008KT P6SM BKN120=

USA.gov is the U.S. government's official web portal to all federal, state and local government web resources and services.